sensor_id;sensor_type;location;lat;lon;timestamp;pressure;altitude;pressure_sealevel;temperature;humidity
28004;BME280;15330;51.234;6.754;2024-02-26T00:02:08;99470.81;;;7.62;66.63
28004;BME280;15330;51.234;6.754;2024-02-26T00:04:33;99474.81;;;7.76;65.45
28004;BME280;15330;51.234;6.754;2024-02-26T00:06:59;99481.69;;;7.78;65.41
28004;BME280;15330;51.234;6.754;2024-02-26T00:09:24;99491.66;;;7.76;65.56
28004;BME280;15330;51.234;6.754;2024-02-26T00:11:49;99478.22;;;7.68;66.32
28004;BME280;15330;51.234;6.754;2024-02-26T00:14:15;99471.81;;;7.61;66.32
28004;BME280;15330;51.234;6.754;2024-02-26T00:16:40;99478.81;;;7.62;66.38
28004;BME280;15330;51.234;6.754;2024-02-26T00:19:07;99481.56;;;7.70;65.92
28004;BME280;15330;51.234;6.754;2024-02-26T00:21:32;99488.69;;;7.79;65.32
28004;BME280;15330;51.234;6.754;2024-02-26T00:23:57;99481.00;;;7.76;66.21
28004;BME280;15330;51.234;6.754;2024-02-26T00:26:23;99476.41;;;7.68;65.48
28004;BME280;15330;51.234;6.754;2024-02-26T00:28:48;99476.69;;;7.65;65.09
28004;BME280;15330;51.234;6.754;2024-02-26T00:31:14;99470.25;;;7.68;64.57
28004;BME280;15330;51.234;6.754;2024-02-26T00:33:39;99475.81;;;7.75;65.26
28004;BME280;15330;51.234;6.754;2024-02-26T00:36:05;99478.19;;;7.78;65.41
28004;BME280;15330;51.234;6.754;2024-02-26T00:38:30;99476.38;;;7.78;64.90
28004;BME280;15330;51.234;6.754;2024-02-26T00:40:56;99480.31;;;7.74;65.18
28004;BME280;15330;51.234;6.754;2024-02-26T00:43:21;99475.56;;;7.68;64.39
28004;BME280;15330;51.234;6.754;2024-02-26T00:45:46;99477.66;;;7.74;64.97
28004;BME280;15330;51.234;6.754;2024-02-26T00:48:12;99471.47;;;7.74;63.97
28004;BME280;15330;51.234;6.754;2024-02-26T00:50:39;99468.38;;;7.78;64.44
28004;BME280;15330;51.234;6.754;2024-02-26T00:53:05;99477.69;;;7.64;64.79
28004;BME280;15330;51.234;6.754;2024-02-26T00:55:30;99472.44;;;7.73;64.66
28004;BME280;15330;51.234;6.754;2024-02-26T00:57:55;99465.59;;;7.70;64.42
28004;BME280;15330;51.234;6.754;2024-02-26T01:00:21;99473.81;;;7.77;64.14
28004;BME280;15330;51.234;6.754;2024-02-26T01:02:47;99477.69;;;7.64;64.61
28004;BME280;15330;51.234;6.754;2024-02-26T01:05:13;99481.88;;;7.67;64.26
28004;BME280;15330;51.234;6.754;2024-02-26T01:07:39;99479.63;;;7.72;64.35
28004;BME280;15330;51.234;6.754;2024-02-26T01:10:08;99473.81;;;7.77;64.50
28004;BME280;15330;51.234;6.754;2024-02-26T01:12:34;99476.25;;;7.70;64.72
28004;BME280;15330;51.234;6.754;2024-02-26T01:15:00;99489.28;;;7.73;65.30
28004;BME280;15330;51.234;6.754;2024-02-26T01:17:25;99483.81;;;7.75;66.06
28004;BME280;15330;51.234;6.754;2024-02-26T01:19:51;99477.06;;;7.80;66.29
28004;BME280;15330;51.234;6.754;2024-02-26T01:22:16;99473.00;;;7.76;66.91
28004;BME280;15330;51.234;6.754;2024-02-26T01:24:42;99470.81;;;7.62;67.63
28004;BME280;15330;51.234;6.754;2024-02-26T01:27:07;99475.19;;;7.53;69.08
28004;BME280;15330;51.234;6.754;2024-02-26T01:29:34;99479.63;;;7.72;69.12
28004;BME280;15330;51.234;6.754;2024-02-26T01:31:59;99474.00;;;7.75;68.55
28004;BME280;15330;51.234;6.754;2024-02-26T01:34:25;99482.81;;;7.76;69.39
28004;BME280;15330;51.234;6.754;2024-02-26T01:36:50;99470.88;;;7.80;69.76
28004;BME280;15330;51.234;6.754;2024-02-26T01:39:15;99474.03;;;7.65;70.10
28004;BME280;15330;51.234;6.754;2024-02-26T01:41:41;99470.50;;;7.75;70.78
28004;BME280;15330;51.234;6.754;2024-02-26T01:44:06;99472.38;;;7.64;69.93
28004;BME280;15330;51.234;6.754;2024-02-26T01:46:35;99470.47;;;7.37;70.82
28004;BME280;15330;51.234;6.754;2024-02-26T01:49:02;99472.69;;;7.52;71.22
28004;BME280;15330;51.234;6.754;2024-02-26T01:51:29;99464.19;;;7.38;71.88
28004;BME280;15330;51.234;6.754;2024-02-26T01:53:55;99467.25;;;7.43;72.83
28004;BME280;15330;51.234;6.754;2024-02-26T01:56:22;99472.28;;;7.46;72.39
28004;BME280;15330;51.234;6.754;2024-02-26T01:58:48;99471.72;;;7.43;73.45
28004;BME280;15330;51.234;6.754;2024-02-26T02:01:15;99477.50;;;7.38;73.98
28004;BME280;15330;51.234;6.754;2024-02-26T02:03:41;99473.94;;;7.47;73.64
28004;BME280;15330;51.234;6.754;2024-02-26T02:06:07;99476.97;;;7.25;74.67
28004;BME280;15330;51.234;6.754;2024-02-26T02:08:33;99475.22;;;7.43;75.07
28004;BME280;15330;51.234;6.754;2024-02-26T02:11:00;99480.91;;;7.21;75.65
28004;BME280;15330;51.234;6.754;2024-02-26T02:13:27;99487.88;;;7.22;76.19
28004;BME280;15330;51.234;6.754;2024-02-26T02:15:52;99486.53;;;6.98;77.13
28004;BME280;15330;51.234;6.754;2024-02-26T02:18:19;99486.75;;;7.34;76.27
28004;BME280;15330;51.234;6.754;2024-02-26T02:20:44;99488.63;;;7.05;75.99
28004;BME280;15330;51.234;6.754;2024-02-26T02:23:10;99493.25;;;7.03;78.08
28004;BME280;15330;51.234;6.754;2024-02-26T02:25:35;99490.16;;;7.17;78.52
28004;BME280;15330;51.234;6.754;2024-02-26T02:28:01;99483.34;;;6.85;80.40
28004;BME280;15330;51.234;6.754;2024-02-26T02:30:29;99478.00;;;7.05;80.70
28004;BME280;15330;51.234;6.754;2024-02-26T02:32:55;99476.88;;;6.97;80.79
28004;BME280;15330;51.234;6.754;2024-02-26T02:35:20;99463.31;;;6.91;81.14
28004;BME280;15330;51.234;6.754;2024-02-26T02:37:46;99470.31;;;6.82;81.39
28004;BME280;15330;51.234;6.754;2024-02-26T02:40:11;99479.41;;;6.89;81.32
28004;BME280;15330;51.234;6.754;2024-02-26T02:42:37;99470.16;;;6.74;82.10
28004;BME280;15330;51.234;6.754;2024-02-26T02:45:02;99468.94;;;6.59;82.53
28004;BME280;15330;51.234;6.754;2024-02-26T02:47:28;99470.75;;;6.58;82.92
28004;BME280;15330;51.234;6.754;2024-02-26T02:49:53;99469.22;;;6.56;83.56
28004;BME280;15330;51.234;6.754;2024-02-26T02:52:18;99462.50;;;6.71;82.55
28004;BME280;15330;51.234;6.754;2024-02-26T02:54:44;99462.50;;;6.81;82.58
28004;BME280;15330;51.234;6.754;2024-02-26T02:57:09;99463.34;;;6.62;82.93
28004;BME280;15330;51.234;6.754;2024-02-26T02:59:36;99466.94;;;6.61;83.25
28004;BME280;15330;51.234;6.754;2024-02-26T03:02:02;99471.44;;;6.41;84.30
28004;BME280;15330;51.234;6.754;2024-02-26T03:04:27;99469.88;;;6.77;83.71
28004;BME280;15330;51.234;6.754;2024-02-26T03:06:54;99470.03;;;6.85;83.28
28004;BME280;15330;51.234;6.754;2024-02-26T03:09:20;99467.66;;;6.92;83.15
28004;BME280;15330;51.234;6.754;2024-02-26T03:11:45;99469.06;;;6.67;83.44
28004;BME280;15330;51.234;6.754;2024-02-26T03:14:10;99462.06;;;6.46;84.83
28004;BME280;15330;51.234;6.754;2024-02-26T03:16:36;99464.72;;;6.56;83.63
28004;BME280;15330;51.234;6.754;2024-02-26T03:19:01;99462.47;;;6.61;84.44
28004;BME280;15330;51.234;6.754;2024-02-26T03:21:28;99458.84;;;6.52;84.27
28004;BME280;15330;51.234;6.754;2024-02-26T03:23:53;99459.69;;;6.34;85.21
28004;BME280;15330;51.234;6.754;2024-02-26T03:26:19;99461.50;;;6.52;84.46
28004;BME280;15330;51.234;6.754;2024-02-26T03:28:44;99459.41;;;6.46;84.11
28004;BME280;15330;51.234;6.754;2024-02-26T03:31:10;99462.91;;;6.37;85.31
28004;BME280;15330;51.234;6.754;2024-02-26T03:33:36;99463.19;;;6.44;84.52
28004;BME280;15330;51.234;6.754;2024-02-26T03:36:01;99464.16;;;6.33;85.14
28004;BME280;15330;51.234;6.754;2024-02-26T03:38:28;99464.81;;;6.16;84.85
28004;BME280;15330;51.234;6.754;2024-02-26T03:40:54;99457.69;;;6.16;85.17
28004;BME280;15330;51.234;6.754;2024-02-26T03:43:19;99453.81;;;5.90;86.31
28004;BME280;15330;51.234;6.754;2024-02-26T03:45:45;99458.28;;;6.20;85.24
28004;BME280;15330;51.234;6.754;2024-02-26T03:48:10;99452.38;;;6.26;85.29
28004;BME280;15330;51.234;6.754;2024-02-26T03:50:35;99453.34;;;6.05;85.56
28004;BME280;15330;51.234;6.754;2024-02-26T03:53:01;99464.34;;;5.91;86.40
28004;BME280;15330;51.234;6.754;2024-02-26T03:55:26;99459.47;;;5.96;86.62
28004;BME280;15330;51.234;6.754;2024-02-26T03:57:52;99468.31;;;6.16;85.80
28004;BME280;15330;51.234;6.754;2024-02-26T04:00:17;99466.06;;;6.12;85.81
28004;BME280;15330;51.234;6.754;2024-02-26T04:02:43;99473.31;;;6.00;85.67
28004;BME280;15330;51.234;6.754;2024-02-26T04:05:12;99471.59;;;5.89;86.65
28004;BME280;15330;51.234;6.754;2024-02-26T04:07:38;99468.28;;;5.97;85.80
28004;BME280;15330;51.234;6.754;2024-02-26T04:10:09;99470.00;;;5.77;86.38
28004;BME280;15330;51.234;6.754;2024-02-26T04:12:34;99474.06;;;5.81;86.92
28004;BME280;15330;51.234;6.754;2024-02-26T04:15:00;99472.69;;;5.87;86.30
28004;BME280;15330;51.234;6.754;2024-02-26T04:17:25;99485.56;;;5.81;86.24
28004;BME280;15330;51.234;6.754;2024-02-26T04:19:50;99483.09;;;5.99;85.70
28004;BME280;15330;51.234;6.754;2024-02-26T04:22:16;99485.09;;;5.76;86.41
28004;BME280;15330;51.234;6.754;2024-02-26T04:24:41;99477.66;;;5.70;86.85
28004;BME280;15330;51.234;6.754;2024-02-26T04:27:06;99477.31;;;5.84;86.43
28004;BME280;15330;51.234;6.754;2024-02-26T04:29:32;99489.31;;;5.79;86.28
28004;BME280;15330;51.234;6.754;2024-02-26T04:31:57;99497.88;;;5.61;86.62
28004;BME280;15330;51.234;6.754;2024-02-26T04:34:23;99487.97;;;5.64;86.09
28004;BME280;15330;51.234;6.754;2024-02-26T04:36:48;99491.69;;;5.82;86.71
28004;BME280;15330;51.234;6.754;2024-02-26T04:39:13;99498.69;;;5.83;86.20
28004;BME280;15330;51.234;6.754;2024-02-26T04:41:39;99503.16;;;5.82;86.13
28004;BME280;15330;51.234;6.754;2024-02-26T04:44:05;99504.75;;;5.64;86.99
28004;BME280;15330;51.234;6.754;2024-02-26T04:46:30;99494.97;;;5.95;85.80
28004;BME280;15330;51.234;6.754;2024-02-26T04:48:56;99511.50;;;5.68;86.92
28004;BME280;15330;51.234;6.754;2024-02-26T04:51:21;99508.59;;;5.50;87.19
28004;BME280;15330;51.234;6.754;2024-02-26T04:53:47;99501.41;;;5.62;86.93
28004;BME280;15330;51.234;6.754;2024-02-26T04:56:12;99501.78;;;5.57;87.31
28004;BME280;15330;51.234;6.754;2024-02-26T04:58:37;99508.91;;;5.57;87.67
28004;BME280;15330;51.234;6.754;2024-02-26T05:01:03;99500.13;;;5.56;86.62
28004;BME280;15330;51.234;6.754;2024-02-26T05:03:29;99505.44;;;5.56;87.76
28004;BME280;15330;51.234;6.754;2024-02-26T05:05:54;99504.97;;;5.51;87.25
28004;BME280;15330;51.234;6.754;2024-02-26T05:08:20;99496.97;;;5.42;87.75
28004;BME280;15330;51.234;6.754;2024-02-26T05:10:45;99505.59;;;5.65;87.60
28004;BME280;15330;51.234;6.754;2024-02-26T05:13:11;99514.34;;;5.86;87.87
28004;BME280;15330;51.234;6.754;2024-02-26T05:15:36;99511.03;;;5.63;86.16
28004;BME280;15330;51.234;6.754;2024-02-26T05:18:02;99513.69;;;5.63;87.40
28004;BME280;15330;51.234;6.754;2024-02-26T05:20:28;99506.84;;;5.60;87.25
28004;BME280;15330;51.234;6.754;2024-02-26T05:22:53;99517.28;;;5.52;87.61
28004;BME280;15330;51.234;6.754;2024-02-26T05:25:19;99523.16;;;5.87;87.38
28004;BME280;15330;51.234;6.754;2024-02-26T05:27:44;99533.56;;;5.99;85.47
28004;BME280;15330;51.234;6.754;2024-02-26T05:30:10;99530.81;;;5.80;86.47
28004;BME280;15330;51.234;6.754;2024-02-26T05:32:36;99539.25;;;5.64;88.13
28004;BME280;15330;51.234;6.754;2024-02-26T05:35:02;99534.34;;;5.90;85.73
28004;BME280;15330;51.234;6.754;2024-02-26T05:37:30;99535.31;;;5.89;86.42
28004;BME280;15330;51.234;6.754;2024-02-26T05:39:56;99531.09;;;6.07;86.24
28004;BME280;15330;51.234;6.754;2024-02-26T05:42:21;99536.69;;;5.83;87.14
28004;BME280;15330;51.234;6.754;2024-02-26T05:44:47;99538.06;;;5.68;87.53
28004;BME280;15330;51.234;6.754;2024-02-26T05:47:12;99537.28;;;5.56;88.44
28004;BME280;15330;51.234;6.754;2024-02-26T05:49:39;99540.59;;;5.79;87.86
28004;BME280;15330;51.234;6.754;2024-02-26T05:52:04;99535.25;;;5.70;87.37
28004;BME280;15330;51.234;6.754;2024-02-26T05:54:30;99549.34;;;5.40;88.01
28004;BME280;15330;51.234;6.754;2024-02-26T05:56:55;99551.34;;;5.47;87.67
28004;BME280;15330;51.234;6.754;2024-02-26T05:59:21;99558.16;;;5.40;88.61
28004;BME280;15330;51.234;6.754;2024-02-26T06:01:46;99555.72;;;5.58;88.31
28004;BME280;15330;51.234;6.754;2024-02-26T06:04:12;99552.44;;;5.45;88.49
28004;BME280;15330;51.234;6.754;2024-02-26T06:06:37;99560.50;;;5.64;89.24
28004;BME280;15330;51.234;6.754;2024-02-26T06:09:03;99563.44;;;5.92;87.76
28004;BME280;15330;51.234;6.754;2024-02-26T06:11:30;99567.47;;;5.55;88.05
28004;BME280;15330;51.234;6.754;2024-02-26T06:13:56;99563.81;;;5.56;88.33
28004;BME280;15330;51.234;6.754;2024-02-26T06:16:21;99561.16;;;5.35;89.29
28004;BME280;15330;51.234;6.754;2024-02-26T06:18:47;99567.72;;;5.52;89.32
28004;BME280;15330;51.234;6.754;2024-02-26T06:21:12;99575.59;;;5.64;88.98
28004;BME280;15330;51.234;6.754;2024-02-26T06:23:38;99580.69;;;5.76;87.81
28004;BME280;15330;51.234;6.754;2024-02-26T06:26:04;99576.63;;;5.93;87.72
28004;BME280;15330;51.234;6.754;2024-02-26T06:28:30;99576.22;;;5.77;88.05
28004;BME280;15330;51.234;6.754;2024-02-26T06:30:57;99594.00;;;5.55;88.30
28004;BME280;15330;51.234;6.754;2024-02-26T06:33:22;99585.84;;;5.68;87.96
28004;BME280;15330;51.234;6.754;2024-02-26T06:35:48;99598.13;;;5.69;88.38
28004;BME280;15330;51.234;6.754;2024-02-26T06:38:13;99598.91;;;5.60;88.54
28004;BME280;15330;51.234;6.754;2024-02-26T06:40:39;99601.91;;;5.46;88.58
28004;BME280;15330;51.234;6.754;2024-02-26T06:43:05;99606.69;;;5.73;88.78
28004;BME280;15330;51.234;6.754;2024-02-26T06:45:31;99605.00;;;6.23;87.23
28004;BME280;15330;51.234;6.754;2024-02-26T06:47:56;99609.44;;;6.13;86.24
28004;BME280;15330;51.234;6.754;2024-02-26T06:50:22;99610.75;;;5.98;86.53
28004;BME280;15330;51.234;6.754;2024-02-26T06:52:47;99615.66;;;6.33;87.30
28004;BME280;15330;51.234;6.754;2024-02-26T06:55:13;99616.00;;;6.19;86.33
28004;BME280;15330;51.234;6.754;2024-02-26T06:57:38;99619.09;;;6.14;87.44
28004;BME280;15330;51.234;6.754;2024-02-26T07:00:04;99624.44;;;5.72;87.19
28004;BME280;15330;51.234;6.754;2024-02-26T07:02:30;99633.00;;;6.06;87.47
28004;BME280;15330;51.234;6.754;2024-02-26T07:04:56;99625.19;;;5.84;87.08
28004;BME280;15330;51.234;6.754;2024-02-26T07:07:23;99633.84;;;5.55;88.27
28004;BME280;15330;51.234;6.754;2024-02-26T07:09:49;99636.28;;;5.47;88.79
28004;BME280;15330;51.234;6.754;2024-02-26T07:12:14;99636.91;;;5.60;88.64
28004;BME280;15330;51.234;6.754;2024-02-26T07:14:41;99639.50;;;5.51;88.82
28004;BME280;15330;51.234;6.754;2024-02-26T07:17:06;99646.03;;;5.68;88.66
28004;BME280;15330;51.234;6.754;2024-02-26T07:19:32;99645.59;;;5.83;87.83
28004;BME280;15330;51.234;6.754;2024-02-26T07:21:58;99649.47;;;5.58;88.68
28004;BME280;15330;51.234;6.754;2024-02-26T07:24:23;99652.34;;;5.67;89.01
28004;BME280;15330;51.234;6.754;2024-02-26T07:26:48;99644.63;;;5.84;88.04
28004;BME280;15330;51.234;6.754;2024-02-26T07:29:14;99660.25;;;5.78;88.31
28004;BME280;15330;51.234;6.754;2024-02-26T07:31:39;99656.16;;;5.74;88.00
28004;BME280;15330;51.234;6.754;2024-02-26T07:34:05;99660.03;;;5.70;88.78
28004;BME280;15330;51.234;6.754;2024-02-26T07:36:30;99655.25;;;5.64;88.69
28004;BME280;15330;51.234;6.754;2024-02-26T07:38:55;99655.75;;;5.57;89.09
28004;BME280;15330;51.234;6.754;2024-02-26T07:41:21;99661.81;;;5.59;88.01
28004;BME280;15330;51.234;6.754;2024-02-26T07:43:46;99650.00;;;5.52;90.06
28004;BME280;15330;51.234;6.754;2024-02-26T07:46:12;99657.25;;;5.71;89.48
28004;BME280;15330;51.234;6.754;2024-02-26T07:48:38;99663.72;;;5.57;89.74
28004;BME280;15330;51.234;6.754;2024-02-26T07:51:04;99665.34;;;5.70;89.73
28004;BME280;15330;51.234;6.754;2024-02-26T07:53:29;99670.94;;;5.46;89.86
28004;BME280;15330;51.234;6.754;2024-02-26T07:55:56;99671.84;;;5.56;90.55
28004;BME280;15330;51.234;6.754;2024-02-26T07:58:22;99671.25;;;5.52;89.71
28004;BME280;15330;51.234;6.754;2024-02-26T08:00:48;99678.09;;;5.55;90.33
28004;BME280;15330;51.234;6.754;2024-02-26T08:03:14;99669.31;;;5.75;89.91
28004;BME280;15330;51.234;6.754;2024-02-26T08:05:41;99678.28;;;5.84;89.55
28004;BME280;15330;51.234;6.754;2024-02-26T08:08:08;99684.84;;;6.22;88.53
28004;BME280;15330;51.234;6.754;2024-02-26T08:10:34;99679.75;;;6.09;88.53
28004;BME280;15330;51.234;6.754;2024-02-26T08:12:59;99689.38;;;6.00;88.27
28004;BME280;15330;51.234;6.754;2024-02-26T08:15:34;99696.72;;;5.97;88.40
28004;BME280;15330;51.234;6.754;2024-02-26T08:18:00;99694.94;;;5.97;88.71
28004;BME280;15330;51.234;6.754;2024-02-26T08:20:28;99699.25;;;5.98;88.53
28004;BME280;15330;51.234;6.754;2024-02-26T08:22:54;99706.19;;;6.11;88.78
28004;BME280;15330;51.234;6.754;2024-02-26T08:25:19;99704.69;;;6.18;88.62
28004;BME280;15330;51.234;6.754;2024-02-26T08:27:45;99710.47;;;6.23;88.32
28004;BME280;15330;51.234;6.754;2024-02-26T08:30:13;99714.38;;;5.98;88.87
28004;BME280;15330;51.234;6.754;2024-02-26T08:32:41;99710.38;;;5.92;88.59
28004;BME280;15330;51.234;6.754;2024-02-26T08:35:07;99708.69;;;5.91;89.07
28004;BME280;15330;51.234;6.754;2024-02-26T08:37:33;99711.91;;;5.74;89.17
28004;BME280;15330;51.234;6.754;2024-02-26T08:39:58;99722.50;;;6.06;88.77
28004;BME280;15330;51.234;6.754;2024-02-26T08:42:24;99720.63;;;5.97;89.25
28004;BME280;15330;51.234;6.754;2024-02-26T08:44:49;99724.91;;;5.88;89.27
28004;BME280;15330;51.234;6.754;2024-02-26T08:47:14;99729.47;;;5.97;89.12
28004;BME280;15330;51.234;6.754;2024-02-26T08:49:45;99723.59;;;6.03;88.68
28004;BME280;15330;51.234;6.754;2024-02-26T08:52:10;99726.66;;;5.99;89.44
28004;BME280;15330;51.234;6.754;2024-02-26T08:54:36;99724.63;;;5.91;90.00
28004;BME280;15330;51.234;6.754;2024-02-26T08:57:02;99733.47;;;6.13;89.17
28004;BME280;15330;51.234;6.754;2024-02-26T08:59:28;99742.22;;;6.24;88.42
28004;BME280;15330;51.234;6.754;2024-02-26T09:01:53;99741.00;;;6.07;89.25
28004;BME280;15330;51.234;6.754;2024-02-26T09:04:19;99731.78;;;6.12;89.25
28004;BME280;15330;51.234;6.754;2024-02-26T09:06:44;99747.47;;;6.36;88.27
28004;BME280;15330;51.234;6.754;2024-02-26T09:09:09;99735.69;;;6.07;89.22
28004;BME280;15330;51.234;6.754;2024-02-26T09:11:36;99742.22;;;6.03;90.58
28004;BME280;15330;51.234;6.754;2024-02-26T09:14:02;99746.91;;;6.11;90.38
28004;BME280;15330;51.234;6.754;2024-02-26T09:16:29;99751.75;;;6.27;89.60
28004;BME280;15330;51.234;6.754;2024-02-26T09:18:54;99748.09;;;6.28;90.54
28004;BME280;15330;51.234;6.754;2024-02-26T09:21:19;99753.09;;;6.21;89.96
28004;BME280;15330;51.234;6.754;2024-02-26T09:23:52;99753.16;;;6.31;89.13
28004;BME280;15330;51.234;6.754;2024-02-26T09:26:17;99761.22;;;6.20;89.54
28004;BME280;15330;51.234;6.754;2024-02-26T09:28:43;99764.13;;;6.17;89.26
28004;BME280;15330;51.234;6.754;2024-02-26T09:31:08;99756.44;;;6.14;89.73
28004;BME280;15330;51.234;6.754;2024-02-26T09:33:35;99760.56;;;6.06;89.98
28004;BME280;15330;51.234;6.754;2024-02-26T09:36:01;99761.09;;;5.89;89.64
28004;BME280;15330;51.234;6.754;2024-02-26T09:38:27;99761.75;;;6.14;89.94
28004;BME280;15330;51.234;6.754;2024-02-26T09:40:53;99772.38;;;6.14;89.72
28004;BME280;15330;51.234;6.754;2024-02-26T09:43:21;99779.16;;;6.27;89.75
28004;BME280;15330;51.234;6.754;2024-02-26T09:45:49;99782.78;;;6.05;89.92
28004;BME280;15330;51.234;6.754;2024-02-26T09:48:17;99781.88;;;6.16;89.33
28004;BME280;15330;51.234;6.754;2024-02-26T09:50:43;99784.81;;;6.13;90.08
28004;BME280;15330;51.234;6.754;2024-02-26T09:53:10;99789.03;;;6.37;88.67
28004;BME280;15330;51.234;6.754;2024-02-26T09:55:36;99793.63;;;6.35;89.18
28004;BME280;15330;51.234;6.754;2024-02-26T09:58:05;99803.56;;;6.33;89.92
28004;BME280;15330;51.234;6.754;2024-02-26T10:00:31;99803.00;;;6.39;89.79
28004;BME280;15330;51.234;6.754;2024-02-26T10:03:03;99805.81;;;6.37;89.72
28004;BME280;15330;51.234;6.754;2024-02-26T10:05:30;99808.50;;;6.26;90.65
28004;BME280;15330;51.234;6.754;2024-02-26T10:07:57;99809.25;;;6.28;90.58
28004;BME280;15330;51.234;6.754;2024-02-26T10:10:25;99814.19;;;6.33;90.66
28004;BME280;15330;51.234;6.754;2024-02-26T10:12:52;99810.00;;;5.98;91.26
28004;BME280;15330;51.234;6.754;2024-02-26T10:15:18;99819.28;;;6.24;91.50
28004;BME280;15330;51.234;6.754;2024-02-26T10:17:43;99822.91;;;6.02;91.63
28004;BME280;15330;51.234;6.754;2024-02-26T10:20:13;99823.13;;;6.11;91.02
28004;BME280;15330;51.234;6.754;2024-02-26T10:22:46;99830.66;;;6.26;90.81
28004;BME280;15330;51.234;6.754;2024-02-26T10:25:11;99827.91;;;6.38;90.65
28004;BME280;15330;51.234;6.754;2024-02-26T10:27:36;99840.06;;;6.19;90.98
28004;BME280;15330;51.234;6.754;2024-02-26T10:30:03;99831.66;;;6.35;90.13
28004;BME280;15330;51.234;6.754;2024-02-26T10:32:30;99837.19;;;6.43;90.26
28004;BME280;15330;51.234;6.754;2024-02-26T10:34:56;99831.00;;;6.22;90.44
28004;BME280;15330;51.234;6.754;2024-02-26T10:37:22;99834.34;;;6.56;89.99
28004;BME280;15330;51.234;6.754;2024-02-26T10:39:48;99842.00;;;6.49;90.74
28004;BME280;15330;51.234;6.754;2024-02-26T10:42:13;99842.69;;;6.30;89.77
28004;BME280;15330;51.234;6.754;2024-02-26T10:44:40;99849.44;;;6.35;89.85
28004;BME280;15330;51.234;6.754;2024-02-26T10:47:07;99849.75;;;6.41;89.58
28004;BME280;15330;51.234;6.754;2024-02-26T10:49:34;99859.75;;;6.28;90.50
28004;BME280;15330;51.234;6.754;2024-02-26T10:52:01;99862.88;;;6.33;90.54
28004;BME280;15330;51.234;6.754;2024-02-26T10:54:29;99858.97;;;6.37;90.77
28004;BME280;15330;51.234;6.754;2024-02-26T10:56:56;99862.13;;;6.10;90.51
28004;BME280;15330;51.234;6.754;2024-02-26T10:59:22;99860.22;;;6.33;90.38
28004;BME280;15330;51.234;6.754;2024-02-26T11:01:50;99859.75;;;6.28;90.91
28004;BME280;15330;51.234;6.754;2024-02-26T11:04:16;99869.94;;;6.23;91.06
28004;BME280;15330;51.234;6.754;2024-02-26T11:06:44;99872.59;;;6.44;90.86
28004;BME280;15330;51.234;6.754;2024-02-26T11:09:12;99878.31;;;6.81;90.03
28004;BME280;15330;51.234;6.754;2024-02-26T11:11:38;99880.13;;;7.11;89.29
28004;BME280;15330;51.234;6.754;2024-02-26T11:14:06;99881.06;;;7.00;89.02
28004;BME280;15330;51.234;6.754;2024-02-26T11:16:35;99883.03;;;6.78;90.36
28004;BME280;15330;51.234;6.754;2024-02-26T11:19:02;99880.72;;;6.84;89.94
28004;BME280;15330;51.234;6.754;2024-02-26T11:21:28;99887.53;;;7.08;89.05
28004;BME280;15330;51.234;6.754;2024-02-26T11:24:13;99888.34;;;6.57;91.27
28004;BME280;15330;51.234;6.754;2024-02-26T11:26:58;99894.56;;;6.67;91.31
28004;BME280;15330;51.234;6.754;2024-02-26T11:29:38;99899.38;;;6.73;91.50
28004;BME280;15330;51.234;6.754;2024-02-26T11:32:05;99893.81;;;6.97;89.92
28004;BME280;15330;51.234;6.754;2024-02-26T11:34:31;99900.75;;;6.88;89.84
28004;BME280;15330;51.234;6.754;2024-02-26T11:36:57;99898.78;;;6.48;91.20
28004;BME280;15330;51.234;6.754;2024-02-26T11:39:24;99899.84;;;6.36;92.12
28004;BME280;15330;51.234;6.754;2024-02-26T11:41:50;99900.53;;;6.38;91.31
28004;BME280;15330;51.234;6.754;2024-02-26T11:44:28;99904.19;;;6.58;90.90
28004;BME280;15330;51.234;6.754;2024-02-26T11:46:56;99901.06;;;6.53;90.76
28004;BME280;15330;51.234;6.754;2024-02-26T11:51:57;99895.09;;;6.61;90.83
28004;BME280;15330;51.234;6.754;2024-02-26T11:54:48;99899.53;;;6.71;90.01
28004;BME280;15330;51.234;6.754;2024-02-26T11:57:27;99903.66;;;6.64;90.56
28004;BME280;15330;51.234;6.754;2024-02-26T12:00:10;99906.00;;;6.79;89.60
28004;BME280;15330;51.234;6.754;2024-02-26T12:05:19;99914.03;;;6.88;89.51
28004;BME280;15330;51.234;6.754;2024-02-26T12:12:58;99922.66;;;6.60;90.20
28004;BME280;15330;51.234;6.754;2024-02-26T12:15:24;99923.34;;;6.41;90.01
28004;BME280;15330;51.234;6.754;2024-02-26T12:17:56;99920.47;;;6.65;89.80
28004;BME280;15330;51.234;6.754;2024-02-26T12:20:21;99925.38;;;6.48;89.28
28004;BME280;15330;51.234;6.754;2024-02-26T12:22:47;99922.53;;;6.61;89.87
28004;BME280;15330;51.234;6.754;2024-02-26T12:25:13;99924.59;;;6.58;90.51
28004;BME280;15330;51.234;6.754;2024-02-26T12:27:39;99922.41;;;6.63;89.71
28004;BME280;15330;51.234;6.754;2024-02-26T12:30:05;99930.00;;;6.46;90.13
28004;BME280;15330;51.234;6.754;2024-02-26T12:32:31;99934.16;;;6.60;90.44
28004;BME280;15330;51.234;6.754;2024-02-26T12:34:58;99931.31;;;6.52;90.45
28004;BME280;15330;51.234;6.754;2024-02-26T12:37:25;99944.78;;;6.60;90.23
28004;BME280;15330;51.234;6.754;2024-02-26T12:39:51;99939.47;;;6.60;90.34
28004;BME280;15330;51.234;6.754;2024-02-26T12:42:16;99949.09;;;6.72;90.60
28004;BME280;15330;51.234;6.754;2024-02-26T12:44:45;99953.28;;;6.54;91.33
28004;BME280;15330;51.234;6.754;2024-02-26T12:47:11;99950.50;;;6.76;90.94
28004;BME280;15330;51.234;6.754;2024-02-26T12:49:42;99968.41;;;6.95;90.33
28004;BME280;15330;51.234;6.754;2024-02-26T12:52:08;99965.50;;;6.78;90.71
28004;BME280;15330;51.234;6.754;2024-02-26T12:54:33;99970.34;;;6.72;90.65
28004;BME280;15330;51.234;6.754;2024-02-26T12:57:00;99982.06;;;6.49;91.56
28004;BME280;15330;51.234;6.754;2024-02-26T12:59:27;99982.72;;;6.94;91.17
28004;BME280;15330;51.234;6.754;2024-02-26T13:01:53;99984.91;;;6.89;91.19
28004;BME280;15330;51.234;6.754;2024-02-26T13:04:19;99983.59;;;6.84;91.42
28004;BME280;15330;51.234;6.754;2024-02-26T13:06:44;99994.34;;;6.61;91.95
28004;BME280;15330;51.234;6.754;2024-02-26T13:09:15;99996.63;;;6.66;92.51
28004;BME280;15330;51.234;6.754;2024-02-26T13:11:40;99997.38;;;7.10;91.86
28004;BME280;15330;51.234;6.754;2024-02-26T13:14:06;100000.00;;;6.68;91.44
28004;BME280;15330;51.234;6.754;2024-02-26T13:16:31;100009.88;;;6.77;91.40